createdAt,value
2017-08-16T00:01:03.885Z,79.90
2017-08-16T00:03:31.348Z,80.80
2017-08-16T00:05:59.553Z,79.60
2017-08-16T00:08:26.992Z,79.60
2017-08-16T00:10:54.436Z,81.70
2017-08-16T00:13:21.886Z,81.00
2017-08-16T00:15:50.259Z,83.70
2017-08-16T00:18:17.676Z,84.30
2017-08-16T00:20:45.108Z,82.70
2017-08-16T00:23:12.567Z,83.00
2017-08-16T00:25:39.995Z,83.00
2017-08-16T00:28:07.556Z,82.10
2017-08-16T00:30:34.983Z,82.30
2017-08-16T00:33:02.419Z,81.30
2017-08-16T00:35:29.868Z,83.20
2017-08-16T00:37:57.303Z,81.30
2017-08-16T00:40:24.735Z,80.80
2017-08-16T00:42:52.235Z,81.20
2017-08-16T00:45:19.659Z,80.60
2017-08-16T00:47:47.096Z,80.90
2017-08-16T00:50:14.555Z,80.30
2017-08-16T00:52:42.028Z,80.10
2017-08-16T00:55:10.236Z,81.00
2017-08-16T00:57:37.707Z,80.30
2017-08-16T01:00:05.163Z,79.60
2017-08-16T01:02:32.592Z,79.80
2017-08-16T01:05:00.044Z,79.30
2017-08-16T01:07:27.710Z,79.50
2017-08-16T01:09:55.895Z,80.10
2017-08-16T01:12:23.336Z,80.00
2017-08-16T01:14:50.771Z,80.70
2017-08-16T01:17:18.214Z,80.50
2017-08-16T01:19:45.651Z,79.80
2017-08-16T01:22:13.856Z,79.40
2017-08-16T01:24:41.387Z,79.40
2017-08-16T01:27:08.874Z,79.90
2017-08-16T01:29:36.340Z,80.10
2017-08-16T01:32:04.547Z,81.00
2017-08-16T01:34:31.984Z,80.90
2017-08-16T01:36:59.455Z,80.80
2017-08-16T01:39:26.911Z,80.60
2017-08-16T01:41:54.351Z,81.40
2017-08-16T01:44:21.795Z,81.40
2017-08-16T01:46:50.017Z,80.80
2017-08-16T01:49:17.509Z,80.20
2017-08-16T01:51:44.934Z,80.30
2017-08-16T01:54:12.375Z,79.80
2017-08-16T01:56:39.792Z,79.80
2017-08-16T01:59:07.264Z,79.80
2017-08-16T02:01:34.703Z,79.80
2017-08-16T02:04:02.147Z,80.10
2017-08-16T02:06:29.563Z,79.20
2017-08-16T02:08:57.011Z,79.50
2017-08-16T02:11:24.451Z,79.40
2017-08-16T02:13:51.889Z,77.40
2017-08-16T02:16:19.337Z,76.90
2017-08-16T02:18:46.785Z,78.00
2017-08-16T02:21:14.267Z,78.50
2017-08-16T02:23:42.463Z,79.50
2017-08-16T02:26:09.924Z,79.50
2017-08-16T02:28:37.363Z,78.30
2017-08-16T02:31:04.843Z,78.00
2017-08-16T02:33:32.275Z,78.00
2017-08-16T02:35:59.848Z,78.60
2017-08-16T02:38:28.085Z,78.40
2017-08-16T02:40:55.538Z,78.30
2017-08-16T02:43:22.956Z,79.50
2017-08-16T02:45:50.398Z,79.70
2017-08-16T02:48:17.836Z,81.70
2017-08-16T02:50:45.299Z,81.80
2017-08-16T02:53:12.857Z,83.20
2017-08-16T02:55:50.959Z,82.80
2017-08-16T02:58:19.198Z,82.60
2017-08-16T03:00:46.628Z,82.60
2017-08-16T03:03:14.072Z,84.50
2017-08-16T03:05:41.533Z,86.40
2017-08-16T03:08:09.740Z,84.80
2017-08-16T03:10:37.160Z,84.30
2017-08-16T03:13:04.607Z,84.90
2017-08-16T03:15:32.044Z,84.50
2017-08-16T03:17:59.476Z,85.40
2017-08-16T03:20:26.923Z,85.60
2017-08-16T03:22:55.127Z,86.10
2017-08-16T03:25:22.564Z,86.10
2017-08-16T03:27:50.014Z,85.80
2017-08-16T03:30:17.433Z,87.00
2017-08-16T03:32:44.856Z,86.00
2017-08-16T03:35:12.302Z,84.80
2017-08-16T03:37:40.663Z,85.90
2017-08-16T03:40:08.114Z,86.10
2017-08-16T03:42:35.531Z,86.70
2017-08-16T03:45:03.747Z,87.90
2017-08-16T03:47:31.172Z,87.80
2017-08-16T03:49:58.604Z,87.90
2017-08-16T03:52:26.113Z,88.30
2017-08-16T03:54:53.523Z,88.70
2017-08-16T03:57:20.956Z,88.10
2017-08-16T03:59:48.396Z,87.30
2017-08-16T04:02:15.838Z,90.10
2017-08-16T04:04:43.272Z,88.60
2017-08-16T04:07:10.703Z,86.90
2017-08-16T04:09:38.123Z,88.90
2017-08-16T04:12:06.352Z,87.50
2017-08-16T04:14:33.789Z,86.70
2017-08-16T04:17:01.219Z,87.10
2017-08-16T04:19:28.663Z,86.00
2017-08-16T04:21:56.103Z,87.20
2017-08-16T04:24:23.534Z,86.70
2017-08-16T04:26:50.976Z,87.60
2017-08-16T04:29:18.424Z,86.20
2017-08-16T04:31:45.893Z,86.20
2017-08-16T04:34:13.329Z,87.70
2017-08-16T04:36:40.757Z,87.50
2017-08-16T04:39:08.202Z,85.40
2017-08-16T04:41:35.659Z,85.20
2017-08-16T04:44:03.097Z,84.30
2017-08-16T04:46:30.628Z,84.90
2017-08-16T04:48:58.047Z,86.80
2017-08-16T04:51:25.535Z,87.70
2017-08-16T04:53:52.964Z,87.10
2017-08-16T04:56:20.407Z,85.00
2017-08-16T04:58:47.856Z,85.50
2017-08-16T05:01:15.286Z,86.30
2017-08-16T05:03:42.716Z,85.80
2017-08-16T05:06:10.143Z,84.40
2017-08-16T05:08:37.580Z,84.20
2017-08-16T05:11:05.004Z,86.20
2017-08-16T05:13:33.232Z,85.60
2017-08-16T05:16:00.670Z,85.60
2017-08-16T05:18:28.093Z,83.50
2017-08-16T05:20:55.528Z,84.70
2017-08-16T05:23:22.974Z,83.80
2017-08-16T05:25:50.412Z,85.10
2017-08-16T05:28:17.852Z,85.40
2017-08-16T05:30:45.288Z,85.90
2017-08-16T05:33:12.719Z,84.80
2017-08-16T05:35:40.153Z,84.60
2017-08-16T05:38:08.352Z,83.20
2017-08-16T05:40:35.812Z,83.20
2017-08-16T05:43:03.271Z,83.70
2017-08-16T05:45:30.700Z,84.40
2017-08-16T05:47:58.189Z,82.70
2017-08-16T05:50:25.643Z,82.40
2017-08-16T05:52:53.084Z,82.30
2017-08-16T05:55:20.527Z,83.20
2017-08-16T05:57:47.956Z,82.50
2017-08-16T06:00:16.169Z,82.40
2017-08-16T06:02:43.625Z,82.30
2017-08-16T06:05:11.113Z,81.50
2017-08-16T06:07:38.552Z,79.80
2017-08-16T06:10:05.976Z,77.70
2017-08-16T06:12:34.167Z,80.00
2017-08-16T06:15:01.608Z,80.00
2017-08-16T06:17:29.051Z,79.50
2017-08-16T06:19:56.514Z,78.50
2017-08-16T06:22:23.948Z,78.90
2017-08-16T06:24:51.372Z,80.30
2017-08-16T06:27:18.820Z,79.60
2017-08-16T06:29:46.243Z,80.20
2017-08-16T06:32:13.693Z,79.30
2017-08-16T06:34:41.207Z,79.20
2017-08-16T06:37:08.619Z,79.70
2017-08-16T06:39:36.079Z,77.90
2017-08-16T06:42:03.512Z,77.30
2017-08-16T06:44:30.954Z,77.10
2017-08-16T06:46:58.377Z,77.70
2017-08-16T06:49:25.819Z,77.50
2017-08-16T06:51:53.259Z,77.60
2017-08-16T06:54:20.839Z,77.80
2017-08-16T06:56:48.358Z,77.50
2017-08-16T06:59:15.798Z,76.70
2017-08-16T07:01:43.224Z,75.40
2017-08-16T07:04:10.660Z,74.80
2017-08-16T07:06:38.091Z,75.30
2017-08-16T07:09:05.560Z,74.60
2017-08-16T07:11:33.013Z,73.40
2017-08-16T07:14:00.488Z,72.70
2017-08-16T07:16:27.924Z,71.30
2017-08-16T07:18:55.391Z,70.40
2017-08-16T07:21:23.624Z,72.40
2017-08-16T07:23:51.045Z,71.70
2017-08-16T07:26:18.472Z,70.80
2017-08-16T07:28:45.917Z,71.30
2017-08-16T07:31:13.336Z,71.00
2017-08-16T07:33:40.806Z,72.00
2017-08-16T07:36:08.224Z,72.10
2017-08-16T07:38:35.720Z,69.70
2017-08-16T07:41:03.177Z,66.90
2017-08-16T07:43:30.604Z,67.10
2017-08-16T07:45:58.046Z,67.90
2017-08-16T07:48:25.479Z,68.60
2017-08-16T07:50:52.912Z,67.70
2017-08-16T07:53:20.357Z,69.90
2017-08-16T07:55:47.787Z,67.70
2017-08-16T07:58:15.245Z,66.10
2017-08-16T08:00:42.676Z,67.80
2017-08-16T08:03:10.103Z,66.70
2017-08-16T08:05:37.548Z,65.60
2017-08-16T08:08:05.025Z,66.40
2017-08-16T08:10:32.485Z,66.30
2017-08-16T08:12:59.919Z,67.50
2017-08-16T08:15:27.535Z,66.60
2017-08-16T08:17:54.976Z,65.70
2017-08-16T08:20:22.405Z,64.90
2017-08-16T08:22:49.879Z,64.00
2017-08-16T08:25:17.307Z,63.40
2017-08-16T08:27:44.753Z,62.00
2017-08-16T08:30:12.211Z,60.80
2017-08-16T08:32:39.636Z,62.80
2017-08-16T08:35:07.081Z,63.20
2017-08-16T08:37:34.512Z,60.30
2017-08-16T08:40:02.375Z,62.70
2017-08-16T08:42:29.822Z,61.00
2017-08-16T08:44:57.227Z,61.20
2017-08-16T08:47:24.659Z,61.60
2017-08-16T08:49:52.088Z,61.80
2017-08-16T08:52:20.284Z,57.40
2017-08-16T08:54:47.724Z,57.40
2017-08-16T08:57:15.157Z,56.00
2017-08-16T08:59:42.646Z,55.50
2017-08-16T09:02:10.080Z,55.50
2017-08-16T09:04:37.512Z,53.90
2017-08-16T09:07:05.002Z,53.10
2017-08-16T09:09:33.191Z,53.80
2017-08-16T09:12:00.632Z,53.10
2017-08-16T09:14:28.070Z,51.90
2017-08-16T09:16:55.499Z,52.20
2017-08-16T09:19:23.734Z,48.90
2017-08-16T09:21:51.191Z,48.90
2017-08-16T09:24:19.433Z,46.30
2017-08-16T09:26:46.860Z,45.80
2017-08-16T09:29:14.298Z,47.60
2017-08-16T09:31:41.737Z,47.00
2017-08-16T09:34:09.414Z,47.10
2017-08-16T09:36:36.869Z,45.90
2017-08-16T09:39:04.296Z,46.30
2017-08-16T09:41:31.741Z,45.20
2017-08-16T09:43:59.191Z,43.70
2017-08-16T09:46:26.656Z,43.70
2017-08-16T09:48:54.871Z,43.20
2017-08-16T09:51:22.296Z,43.10
2017-08-16T09:53:49.733Z,41.40
2017-08-16T09:56:17.193Z,40.50
2017-08-16T09:58:44.599Z,40.10
2017-08-16T10:01:12.052Z,40.00
2017-08-16T10:03:39.489Z,40.00
2017-08-16T10:06:06.932Z,38.90
2017-08-16T10:08:34.950Z,38.60
2017-08-16T10:11:02.376Z,38.40
2017-08-16T10:13:29.840Z,40.00
2017-08-16T10:15:57.293Z,39.30
2017-08-16T10:18:25.478Z,37.30
2017-08-16T10:20:52.915Z,38.10
2017-08-16T10:23:20.372Z,36.90
2017-08-16T10:25:47.817Z,37.20
2017-08-16T10:28:15.253Z,37.50
2017-08-16T10:30:42.679Z,37.90
2017-08-16T10:33:10.116Z,37.10
2017-08-16T10:35:38.300Z,38.70
2017-08-16T10:38:05.753Z,38.70
2017-08-16T10:40:33.192Z,37.20
2017-08-16T10:43:00.629Z,35.60
2017-08-16T10:45:28.090Z,36.90
2017-08-16T10:47:55.531Z,35.00
2017-08-16T10:50:22.980Z,37.30
2017-08-16T10:52:50.460Z,33.40
2017-08-16T10:55:18.651Z,35.50
2017-08-16T10:57:46.092Z,35.20
2017-08-16T11:00:13.530Z,35.90
2017-08-16T11:02:41.013Z,37.50
2017-08-16T11:05:08.444Z,36.80
2017-08-16T11:07:35.880Z,37.80
2017-08-16T11:10:03.312Z,37.70
2017-08-16T11:12:30.736Z,39.10
2017-08-16T11:14:58.304Z,40.30
2017-08-16T11:17:25.740Z,40.10
2017-08-16T11:19:53.164Z,41.80
2017-08-16T11:22:20.604Z,42.30
2017-08-16T11:24:48.033Z,43.50
2017-08-16T11:27:16.265Z,45.10
2017-08-16T11:29:43.699Z,45.10
2017-08-16T11:32:11.133Z,43.20
2017-08-16T11:34:38.573Z,43.80
2017-08-16T11:37:06.000Z,44.20
2017-08-16T11:39:33.433Z,43.30
2017-08-16T11:42:00.855Z,43.90
2017-08-16T11:44:29.093Z,44.30
2017-08-16T11:46:56.534Z,44.30
2017-08-16T11:49:23.951Z,43.80
2017-08-16T11:51:51.407Z,45.60
2017-08-16T11:54:18.874Z,46.00
2017-08-16T11:56:47.116Z,44.30
2017-08-16T11:59:14.539Z,44.40
2017-08-16T12:01:41.992Z,45.80
2017-08-16T12:04:09.434Z,46.30
2017-08-16T12:06:36.865Z,46.50
2017-08-16T12:09:04.313Z,46.50
2017-08-16T12:11:31.740Z,45.10
2017-08-16T12:13:59.204Z,45.60
2017-08-16T12:16:26.636Z,45.60
2017-08-16T12:18:54.073Z,44.40
2017-08-16T12:21:21.524Z,45.30
2017-08-16T12:23:48.942Z,44.20
2017-08-16T12:26:16.424Z,43.60
2017-08-16T12:28:43.867Z,43.40
2017-08-16T12:31:12.123Z,43.80
2017-08-16T12:33:39.560Z,45.30
2017-08-16T12:36:06.988Z,45.30
2017-08-16T12:38:34.462Z,44.30
2017-08-16T12:41:01.884Z,44.10
2017-08-16T12:43:29.303Z,43.20
2017-08-16T12:45:56.743Z,43.80
2017-08-16T12:48:24.182Z,43.70
2017-08-16T12:50:51.637Z,44.50
2017-08-16T12:53:19.093Z,44.20
2017-08-16T12:55:46.517Z,44.80
2017-08-16T12:58:13.943Z,44.10
2017-08-16T13:00:41.372Z,43.30
2017-08-16T13:03:09.587Z,46.20
2017-08-16T13:05:37.026Z,46.10
2017-08-16T13:08:04.462Z,46.90
2017-08-16T13:10:31.906Z,47.20
2017-08-16T13:12:59.349Z,48.10
2017-08-16T13:15:26.819Z,48.00
2017-08-16T13:17:54.279Z,47.80
2017-08-16T13:20:21.706Z,48.20
2017-08-16T13:22:49.139Z,47.70
2017-08-16T13:25:17.350Z,47.40
2017-08-16T13:27:45.599Z,47.30
2017-08-16T13:30:13.296Z,47.30
2017-08-16T13:32:40.728Z,47.20
2017-08-16T13:35:08.165Z,48.50
2017-08-16T13:37:35.613Z,49.00
2017-08-16T13:40:03.044Z,49.20
2017-08-16T13:42:30.484Z,49.30
2017-08-16T13:44:57.908Z,49.70
2017-08-16T13:47:25.359Z,49.10
2017-08-16T13:49:52.785Z,49.40
2017-08-16T13:52:20.250Z,49.00
2017-08-16T13:54:47.674Z,49.80
2017-08-16T13:57:15.106Z,50.00
2017-08-16T13:59:43.315Z,48.10
2017-08-16T14:02:10.755Z,48.10
2017-08-16T14:04:38.217Z,49.10
2017-08-16T14:07:05.676Z,48.00
2017-08-16T14:09:33.164Z,47.50
2017-08-16T14:12:00.604Z,48.60
2017-08-16T14:14:28.063Z,47.40
2017-08-16T14:16:55.512Z,48.20
2017-08-16T14:19:22.984Z,48.30
2017-08-16T14:21:50.417Z,47.80
2017-08-16T14:24:17.876Z,48.40
2017-08-16T14:26:45.324Z,48.60
2017-08-16T14:29:12.772Z,48.90
2017-08-16T14:31:41.011Z,48.40
2017-08-16T14:34:08.447Z,48.40
2017-08-16T14:36:35.899Z,49.10
2017-08-16T14:39:03.337Z,49.30
2017-08-16T14:41:30.765Z,48.90
2017-08-16T14:43:58.200Z,49.20
2017-08-16T14:46:25.628Z,48.50
2017-08-16T14:48:53.080Z,47.90
2017-08-16T14:51:20.511Z,48.30
2017-08-16T14:53:48.091Z,48.20
2017-08-16T14:56:15.547Z,48.20
2017-08-16T14:58:42.975Z,48.30
2017-08-16T15:01:10.430Z,47.80
2017-08-16T15:03:37.851Z,47.70
2017-08-16T15:06:05.275Z,47.50
2017-08-16T15:08:32.744Z,47.80
2017-08-16T15:11:00.200Z,48.20
2017-08-16T15:13:27.648Z,47.30
2017-08-16T15:15:55.083Z,47.50
2017-08-16T15:18:22.556Z,47.40
2017-08-16T15:20:50.000Z,47.10
2017-08-16T15:23:18.258Z,47.30
2017-08-16T15:25:45.675Z,46.60
2017-08-16T15:28:13.104Z,46.20
2017-08-16T15:30:40.567Z,45.90
2017-08-16T15:33:08.032Z,45.90
2017-08-16T15:35:36.207Z,46.20
2017-08-16T15:38:03.647Z,45.80
2017-08-16T15:40:31.076Z,46.20
2017-08-16T15:42:58.526Z,45.70
2017-08-16T15:45:26.106Z,46.40
2017-08-16T15:47:53.529Z,46.50
2017-08-16T15:50:21.005Z,47.10
2017-08-16T15:52:48.420Z,46.70
2017-08-16T15:55:15.876Z,46.40
2017-08-16T15:57:43.295Z,46.90
2017-08-16T16:00:10.740Z,46.50
2017-08-16T16:02:38.182Z,47.30
2017-08-16T16:05:05.604Z,47.20
2017-08-16T16:07:33.051Z,47.20
2017-08-16T16:10:00.488Z,47.10
2017-08-16T16:12:28.375Z,46.90
2017-08-16T16:14:55.841Z,47.20
2017-08-16T16:17:23.267Z,47.70
2017-08-16T16:19:50.724Z,48.10
2017-08-16T16:22:18.156Z,48.00
2017-08-16T16:24:45.604Z,48.40
2017-08-16T16:27:13.039Z,48.90
2017-08-16T16:29:40.477Z,49.50
2017-08-16T16:32:07.928Z,49.70
2017-08-16T16:34:35.362Z,50.00
2017-08-16T16:37:03.035Z,49.90
2017-08-16T16:39:30.456Z,49.90
2017-08-16T16:41:57.916Z,49.80
2017-08-16T16:44:25.388Z,49.70
2017-08-16T16:46:52.812Z,49.50
2017-08-16T16:49:20.269Z,50.00
2017-08-16T16:51:48.499Z,49.70
2017-08-16T16:54:15.932Z,49.60
2017-08-16T16:56:43.379Z,49.30
2017-08-16T16:59:10.814Z,49.60
2017-08-16T17:01:38.267Z,49.60
2017-08-16T17:04:05.696Z,50.10
2017-08-16T17:06:33.120Z,49.40
2017-08-16T17:09:00.560Z,50.20
2017-08-16T17:11:27.994Z,49.60
2017-08-16T17:13:55.452Z,49.30
2017-08-16T17:16:22.891Z,49.60
2017-08-16T17:18:50.352Z,49.90
2017-08-16T17:21:17.780Z,50.00
2017-08-16T17:23:45.222Z,50.10
2017-08-16T17:26:12.704Z,50.00
2017-08-16T17:28:40.152Z,50.20
2017-08-16T17:31:07.596Z,49.90
2017-08-16T17:33:35.028Z,50.10
2017-08-16T17:36:02.479Z,50.60
2017-08-16T17:38:29.916Z,51.00
2017-08-16T17:40:57.373Z,51.30
2017-08-16T17:43:24.800Z,51.60
2017-08-16T17:45:52.224Z,51.70
2017-08-16T17:48:19.677Z,51.80
2017-08-16T17:50:47.115Z,51.80
2017-08-16T17:53:14.595Z,52.40
2017-08-16T17:55:42.025Z,52.50
2017-08-16T17:58:09.469Z,52.50
2017-08-16T18:00:36.895Z,52.70
2017-08-16T18:03:04.327Z,53.10
2017-08-16T18:05:31.771Z,53.20
2017-08-16T18:07:59.203Z,53.10
2017-08-16T18:10:26.651Z,53.60
2017-08-16T18:12:54.089Z,54.00
2017-08-16T18:15:21.571Z,54.00
2017-08-16T18:17:49.004Z,54.30
2017-08-16T18:20:16.424Z,54.50
2017-08-16T18:22:43.864Z,55.00
2017-08-16T18:25:11.307Z,55.30
2017-08-16T18:27:38.744Z,55.40
2017-08-16T18:30:06.225Z,55.70
2017-08-16T18:32:33.669Z,56.20
2017-08-16T18:35:01.093Z,56.10
2017-08-16T18:37:28.520Z,56.10
2017-08-16T18:39:55.943Z,56.20
2017-08-16T18:42:23.398Z,56.70
2017-08-16T18:44:50.841Z,56.90
2017-08-16T18:47:18.280Z,56.80
2017-08-16T18:49:45.708Z,57.00
2017-08-16T18:52:13.160Z,57.10
2017-08-16T18:54:40.603Z,57.30
2017-08-16T18:57:08.057Z,57.40
2017-08-16T18:59:35.499Z,57.50
2017-08-16T19:02:02.953Z,58.10
2017-08-16T19:04:30.392Z,58.40
2017-08-16T19:06:57.849Z,58.50
2017-08-16T19:09:25.267Z,58.50
2017-08-16T19:11:52.810Z,58.80
2017-08-16T19:14:20.322Z,59.20
2017-08-16T19:16:47.747Z,59.40
2017-08-16T19:19:15.968Z,59.70
2017-08-16T19:21:43.404Z,59.70
2017-08-16T19:24:10.908Z,59.60
2017-08-16T19:26:38.344Z,60.00
2017-08-16T19:29:06.547Z,60.00
2017-08-16T19:31:33.992Z,60.00
2017-08-16T19:34:01.435Z,59.90
2017-08-16T19:36:28.882Z,60.00
2017-08-16T19:38:56.323Z,60.00
2017-08-16T19:41:23.747Z,60.10
2017-08-16T19:43:51.192Z,60.30
2017-08-16T19:46:18.619Z,60.30
2017-08-16T19:48:46.059Z,60.20
2017-08-16T19:51:13.556Z,60.40
2017-08-16T19:53:40.992Z,60.20
2017-08-16T19:56:08.441Z,60.50
2017-08-16T19:58:35.875Z,60.30
2017-08-16T20:01:03.313Z,60.10
2017-08-16T20:03:30.788Z,60.20
2017-08-16T20:05:58.997Z,60.00
2017-08-16T20:08:26.434Z,60.00
2017-08-16T20:10:53.860Z,60.50
2017-08-16T20:13:21.299Z,60.20
2017-08-16T20:15:48.724Z,60.30
2017-08-16T20:18:16.916Z,60.80
2017-08-16T20:20:44.347Z,60.10
2017-08-16T20:23:11.792Z,60.30
2017-08-16T20:25:39.282Z,60.60
2017-08-16T20:28:06.705Z,60.70
2017-08-16T20:30:34.143Z,60.90
2017-08-16T20:33:01.600Z,61.00
2017-08-16T20:35:30.592Z,61.30
2017-08-16T20:37:58.053Z,61.00
2017-08-16T20:40:26.252Z,61.20
2017-08-16T20:42:53.692Z,61.20
2017-08-16T20:45:21.193Z,61.40
2017-08-16T20:47:48.616Z,61.20
2017-08-16T20:50:16.072Z,61.20
2017-08-16T20:52:43.520Z,61.30
2017-08-16T20:55:10.964Z,61.70
2017-08-16T20:57:38.395Z,61.50
2017-08-16T21:00:05.834Z,61.80
2017-08-16T21:02:35.613Z,62.40
2017-08-16T21:05:03.146Z,62.30
2017-08-16T21:07:30.572Z,62.60
2017-08-16T21:09:58.038Z,62.60
2017-08-16T21:12:25.463Z,62.70
2017-08-16T21:14:52.927Z,62.80
2017-08-16T21:17:20.363Z,62.50
2017-08-16T21:19:47.840Z,62.60
2017-08-16T21:22:15.301Z,62.60
2017-08-16T21:24:42.732Z,62.50
2017-08-16T21:27:10.201Z,62.60
2017-08-16T21:29:38.415Z,62.80
2017-08-16T21:32:06.048Z,62.70
2017-08-16T21:34:33.610Z,62.60
2017-08-16T21:37:01.186Z,62.30
2017-08-16T21:39:29.424Z,62.30
2017-08-16T21:41:56.856Z,62.30
2017-08-16T21:44:24.300Z,62.50
2017-08-16T21:46:51.721Z,62.90
2017-08-16T21:49:19.472Z,63.70
2017-08-16T21:51:46.915Z,64.80
2017-08-16T21:54:14.344Z,63.80
2017-08-16T21:56:41.816Z,63.90
2017-08-16T21:59:09.268Z,63.60
2017-08-16T22:01:36.747Z,63.90
2017-08-16T22:04:04.203Z,64.30
2017-08-16T22:06:31.643Z,64.30
2017-08-16T22:08:59.084Z,64.20
2017-08-16T22:11:26.529Z,64.00
2017-08-16T22:13:53.952Z,64.00
2017-08-16T22:16:21.405Z,63.90
2017-08-16T22:18:48.831Z,64.10
2017-08-16T22:21:17.024Z,64.50
2017-08-16T22:23:44.511Z,64.50
2017-08-16T22:26:11.944Z,64.70
2017-08-16T22:28:39.376Z,64.50
2017-08-16T22:31:06.812Z,64.80
2017-08-16T22:33:34.260Z,64.90
2017-08-16T22:36:01.711Z,64.70
2017-08-16T22:38:29.130Z,65.40
2017-08-16T22:40:56.560Z,65.50
2017-08-16T22:43:24.008Z,65.40
2017-08-16T22:45:51.447Z,65.90
2017-08-16T22:48:18.900Z,66.00
2017-08-16T22:50:46.367Z,66.50
2017-08-16T22:53:13.812Z,66.40
2017-08-16T22:55:41.262Z,66.70
2017-08-16T22:58:08.730Z,66.30
2017-08-16T23:00:36.952Z,66.80
2017-08-16T23:03:04.397Z,66.70
2017-08-16T23:05:31.847Z,66.70
2017-08-16T23:07:59.272Z,67.10
2017-08-16T23:10:26.743Z,67.30
2017-08-16T23:12:54.202Z,67.10
2017-08-16T23:15:21.631Z,67.50
2017-08-16T23:17:49.109Z,67.50
2017-08-16T23:20:16.547Z,67.90
2017-08-16T23:22:44.009Z,68.40
2017-08-16T23:25:11.443Z,68.70
2017-08-16T23:27:38.873Z,68.60
2017-08-16T23:30:07.061Z,69.30
2017-08-16T23:32:34.483Z,69.30
2017-08-16T23:35:01.984Z,69.30
2017-08-16T23:37:29.417Z,69.50
2017-08-16T23:39:56.871Z,69.50
2017-08-16T23:42:24.312Z,69.40
2017-08-16T23:44:51.748Z,69.50
2017-08-16T23:47:19.191Z,69.90
2017-08-16T23:49:46.640Z,70.30
2017-08-16T23:52:14.098Z,70.40
2017-08-16T23:54:41.521Z,70.20
2017-08-16T23:57:08.960Z,70.30
2017-08-16T23:59:36.404Z,70.20
